Tyronza, AR (72386)

1:45 PM CDT en Junio 22, 2018 (GMT -0500)
Hackberry | | Change Station

Alt 226 ft 35.72 °N, 90.33 °W | Updated 10 seconds ago

Nublado
Nublado
82.3 ° F
Sensación térmica 88 ° F
N
5
Viento Variable Viento desde ONO
Gusts 0.0 mph

Hoy
Alta -- | Baja -- ° F
--% Posibilidad de precipitaciones
Ayer
Alta -- | Baja -- ° F
Precip. -- pul
Presión 29.78 pul
Visibilidad 10.0 Millas
Nubes Muy nublado 4100 ft
Nublado 5000 ft
Índice de calor 88 ° F
Punto de rocío 72 ° F
Humedad 73%
Precipitaciones 0.00 pul
Espesor de la nieve No disponible.
5:46 AM 8:20 PM
Gibosa creciente, 74% visible
METAR KJBR 221753Z AUTO 26010KT 10SM BKN041 OVC050 27/19 A2979 RMK AO2 SLP084 T02720189 10278 20222 50005
Presión 29.78 pul
Visibilidad 10.0 Millas
Nubes Muy nublado 4100 ft
Nublado 5000 ft
Índice de calor 88 ° F
Punto de rocío 72 ° F
Humedad 73%
Precipitaciones 0.00 pul
Espesor de la nieve No disponible.
5:46 AM 8:20 PM
Gibosa creciente, 74% visible
METAR KJBR 221753Z AUTO 26010KT 10SM BKN041 OVC050 27/19 A2979 RMK AO2 SLP084 T02720189 10278 20222 50005

Get Severe Weather Alerts

Thanks for signing up!

Be on the lookout for a verification email in your inbox.

You'll start receiving the daily forecast at 6 AM.

×

10-Day Weather Forecast

Almanac

Astronomía

Jun. 22, 2018 Salida Puesta
Hora real
Crepúsculo civil
Crepúsculo náutico
Crepúsculo astronómico
Luna
Horas de luz
Horas de luz
Tomorrow will be .
, % of the Moon is Illuminated

Extremos de hoy

Máximos del estado Bajos del estado

Community

WunderPhotos

Category 6

Welcome to Category 6. This is the collective home for Weather Underground's featured writeups by Dr. Jeff Masters (right), Bob Henson (left), Chris Burt, and other regular contributors.

Nearby

Calidad del aire

  Calidad del aire Índice AQ Contaminante
Not available.

Grosos de nieve

Estación Profundido Altura

Actividad de terremotos

Ciudad Distance Mag. Tiempo y dato
Magnitud mínima muestra es 2,5.

Temperaturas de aguas costeras

Lugar Temperatura

Stations

Estaciones meteorológicas cercanas

Ubicación de la estación Temp. Vientos helados Punto de rocío Humedad Viento Precip. Alt Actualizado Tipo
                   

Watches & Warnings

There are currently no watches in effect.